sensor_id;sensor_type;location;lat;lon;timestamp;pressure;altitude;pressure_sealevel;temperature;humidity
7930;BME280;4010;42.698;23.124;2023-09-08T00:02:18;118349.16;;;-140.64;100.00
7930;BME280;4010;42.698;23.124;2023-09-08T00:04:45;118349.16;;;-140.64;100.00
7930;BME280;4010;42.698;23.124;2023-09-08T00:07:12;118349.16;;;-140.64;100.00
7930;BME280;4010;42.698;23.124;2023-09-08T00:09:40;118349.16;;;-140.64;100.00
7930;BME280;4010;42.698;23.124;2023-09-08T00:12:06;118349.16;;;-140.64;100.00
7930;BME280;4010;42.698;23.124;2023-09-08T00:14:33;118349.16;;;-140.64;100.00
7930;BME280;4010;42.698;23.124;2023-09-08T00:17:00;118349.16;;;-140.64;100.00
7930;BME280;4010;42.698;23.124;2023-09-08T00:19:26;118349.16;;;-140.64;100.00
7930;BME280;4010;42.698;23.124;2023-09-08T00:21:53;118349.16;;;-140.64;100.00
7930;BME280;4010;42.698;23.124;2023-09-08T00:24:20;118349.16;;;-140.64;100.00
7930;BME280;4010;42.698;23.124;2023-09-08T00:26:48;118349.16;;;-140.64;100.00
7930;BME280;4010;42.698;23.124;2023-09-08T00:29:14;118349.16;;;-140.64;100.00
7930;BME280;4010;42.698;23.124;2023-09-08T00:31:41;118349.16;;;-140.64;100.00
7930;BME280;4010;42.698;23.124;2023-09-08T00:34:08;118349.16;;;-140.64;100.00
7930;BME280;4010;42.698;23.124;2023-09-08T00:36:33;118349.16;;;-140.64;100.00
7930;BME280;4010;42.698;23.124;2023-09-08T00:39:00;118349.16;;;-140.64;100.00
7930;BME280;4010;42.698;23.124;2023-09-08T00:41:27;118349.16;;;-140.64;100.00
7930;BME280;4010;42.698;23.124;2023-09-08T00:43:55;118349.16;;;-140.64;100.00
7930;BME280;4010;42.698;23.124;2023-09-08T00:46:22;118349.16;;;-140.64;100.00
7930;BME280;4010;42.698;23.124;2023-09-08T00:48:49;118349.16;;;-140.64;100.00
7930;BME280;4010;42.698;23.124;2023-09-08T00:51:15;118349.16;;;-140.64;100.00
7930;BME280;4010;42.698;23.124;2023-09-08T00:53:42;118349.16;;;-140.64;100.00
7930;BME280;4010;42.698;23.124;2023-09-08T00:56:09;118349.16;;;-140.64;100.00
7930;BME280;4010;42.698;23.124;2023-09-08T00:58:37;118349.16;;;-140.64;100.00
7930;BME280;4010;42.698;23.124;2023-09-08T01:01:05;118349.16;;;-140.64;100.00
7930;BME280;4010;42.698;23.124;2023-09-08T01:03:32;118349.16;;;-140.64;100.00
7930;BME280;4010;42.698;23.124;2023-09-08T01:05:59;118349.16;;;-140.64;100.00
7930;BME280;4010;42.698;23.124;2023-09-08T01:08:26;118349.16;;;-140.64;100.00
7930;BME280;4010;42.698;23.124;2023-09-08T01:10:53;118349.16;;;-140.64;100.00
7930;BME280;4010;42.698;23.124;2023-09-08T01:13:20;118349.16;;;-140.64;100.00
7930;BME280;4010;42.698;23.124;2023-09-08T01:15:47;118349.16;;;-140.64;100.00
7930;BME280;4010;42.698;23.124;2023-09-08T01:18:15;118349.16;;;-140.64;100.00
7930;BME280;4010;42.698;23.124;2023-09-08T01:20:55;118349.16;;;-140.64;100.00
7930;BME280;4010;42.698;23.124;2023-09-08T01:23:41;118349.16;;;-140.64;100.00
7930;BME280;4010;42.698;23.124;2023-09-08T01:26:16;118349.16;;;-140.64;100.00
7930;BME280;4010;42.698;23.124;2023-09-08T01:28:44;118349.16;;;-140.64;100.00
7930;BME280;4010;42.698;23.124;2023-09-08T01:31:11;118349.16;;;-140.64;100.00
7930;BME280;4010;42.698;23.124;2023-09-08T01:33:39;118349.16;;;-140.64;100.00
7930;BME280;4010;42.698;23.124;2023-09-08T01:36:07;118349.16;;;-140.64;100.00
7930;BME280;4010;42.698;23.124;2023-09-08T01:38:34;118349.16;;;-140.64;100.00
7930;BME280;4010;42.698;23.124;2023-09-08T01:41:00;118349.16;;;-140.64;100.00
7930;BME280;4010;42.698;23.124;2023-09-08T01:43:29;118349.16;;;-140.64;100.00
7930;BME280;4010;42.698;23.124;2023-09-08T01:45:55;118349.16;;;-140.64;100.00
7930;BME280;4010;42.698;23.124;2023-09-08T01:48:22;118349.16;;;-140.64;100.00
7930;BME280;4010;42.698;23.124;2023-09-08T01:50:49;118349.16;;;-140.64;100.00
7930;BME280;4010;42.698;23.124;2023-09-08T01:53:15;118349.16;;;-140.64;100.00
7930;BME280;4010;42.698;23.124;2023-09-08T01:55:42;118349.16;;;-140.64;100.00
7930;BME280;4010;42.698;23.124;2023-09-08T01:58:09;118349.16;;;-140.64;100.00
7930;BME280;4010;42.698;23.124;2023-09-08T02:00:37;118349.16;;;-140.64;100.00
7930;BME280;4010;42.698;23.124;2023-09-08T02:03:04;118349.16;;;-140.64;100.00
7930;BME280;4010;42.698;23.124;2023-09-08T02:05:30;118349.16;;;-140.64;100.00
7930;BME280;4010;42.698;23.124;2023-09-08T02:07:57;118349.16;;;-140.64;100.00
7930;BME280;4010;42.698;23.124;2023-09-08T02:10:24;118349.16;;;-140.64;100.00
7930;BME280;4010;42.698;23.124;2023-09-08T02:12:52;118349.16;;;-140.64;100.00
7930;BME280;4010;42.698;23.124;2023-09-08T02:15:18;118349.16;;;-140.64;100.00
7930;BME280;4010;42.698;23.124;2023-09-08T02:17:49;118349.16;;;-140.64;100.00
7930;BME280;4010;42.698;23.124;2023-09-08T02:20:16;118349.16;;;-140.64;100.00
7930;BME280;4010;42.698;23.124;2023-09-08T02:22:43;118349.16;;;-140.64;100.00
7930;BME280;4010;42.698;23.124;2023-09-08T02:25:09;118349.16;;;-140.64;100.00
7930;BME280;4010;42.698;23.124;2023-09-08T02:27:36;118349.16;;;-140.64;100.00
7930;BME280;4010;42.698;23.124;2023-09-08T02:30:03;118349.16;;;-140.64;100.00
7930;BME280;4010;42.698;23.124;2023-09-08T02:32:30;118349.16;;;-140.64;100.00
7930;BME280;4010;42.698;23.124;2023-09-08T02:34:58;118349.16;;;-140.64;100.00
7930;BME280;4010;42.698;23.124;2023-09-08T02:37:24;118349.16;;;-140.64;100.00
7930;BME280;4010;42.698;23.124;2023-09-08T02:39:51;118349.16;;;-140.64;100.00
7930;BME280;4010;42.698;23.124;2023-09-08T02:42:18;118349.16;;;-140.64;100.00
7930;BME280;4010;42.698;23.124;2023-09-08T02:44:44;118349.16;;;-140.64;100.00
7930;BME280;4010;42.698;23.124;2023-09-08T02:47:11;118349.16;;;-140.64;100.00
7930;BME280;4010;42.698;23.124;2023-09-08T02:49:38;118349.16;;;-140.64;100.00
7930;BME280;4010;42.698;23.124;2023-09-08T02:52:06;118349.16;;;-140.64;100.00
7930;BME280;4010;42.698;23.124;2023-09-08T02:54:33;118349.16;;;-140.64;100.00
7930;BME280;4010;42.698;23.124;2023-09-08T02:57:00;118349.16;;;-140.64;100.00
7930;BME280;4010;42.698;23.124;2023-09-08T02:59:26;118349.16;;;-140.64;100.00
7930;BME280;4010;42.698;23.124;2023-09-08T03:01:53;118349.16;;;-140.64;100.00
7930;BME280;4010;42.698;23.124;2023-09-08T03:04:20;118349.16;;;-140.64;100.00
7930;BME280;4010;42.698;23.124;2023-09-08T03:06:46;118349.16;;;-140.64;100.00
7930;BME280;4010;42.698;23.124;2023-09-08T03:09:14;118349.16;;;-140.64;100.00
7930;BME280;4010;42.698;23.124;2023-09-08T03:11:41;118349.16;;;-140.64;100.00
7930;BME280;4010;42.698;23.124;2023-09-08T03:14:08;118349.16;;;-140.64;100.00
7930;BME280;4010;42.698;23.124;2023-09-08T03:16:34;118349.16;;;-140.64;100.00
7930;BME280;4010;42.698;23.124;2023-09-08T03:19:01;118349.16;;;-140.64;100.00
7930;BME280;4010;42.698;23.124;2023-09-08T03:21:28;118349.16;;;-140.64;100.00
7930;BME280;4010;42.698;23.124;2023-09-08T03:23:54;118349.16;;;-140.64;100.00
7930;BME280;4010;42.698;23.124;2023-09-08T03:26:22;117793.53;;;-140.64;100.00
7930;BME280;4010;42.698;23.124;2023-09-08T03:28:49;104679.81;;;-140.64;100.00
7930;BME280;4010;42.698;23.124;2023-09-08T03:31:15;90277.78;;;-140.64;100.00
7930;BME280;4010;42.698;23.124;2023-09-08T03:33:43;86360.34;;;-140.64;100.00
7930;BME280;4010;42.698;23.124;2023-09-08T03:36:10;84533.69;;;-140.64;100.00
7930;BME280;4010;42.698;23.124;2023-09-08T03:38:36;72294.22;;;-140.64;100.00
7930;BME280;4010;42.698;23.124;2023-09-08T03:41:03;60357.41;;;-140.64;100.00
7930;BME280;4010;42.698;23.124;2023-09-08T03:43:31;59321.38;;;-140.64;100.00
7930;BME280;4010;42.698;23.124;2023-09-08T03:45:58;58544.59;;;-140.64;100.00
7930;BME280;4010;42.698;23.124;2023-09-08T03:48:24;58285.69;;;-140.64;100.00
7930;BME280;4010;42.698;23.124;2023-09-08T03:50:51;48462.31;;;-140.64;100.00
7930;BME280;4010;42.698;23.124;2023-09-08T03:53:18;47171.91;;;-140.64;100.00
7930;BME280;4010;42.698;23.124;2023-09-08T03:55:44;47171.91;;;-140.64;100.00
7930;BME280;4010;42.698;23.124;2023-09-08T03:58:11;46655.88;;;-140.64;100.00
7930;BME280;4010;42.698;23.124;2023-09-08T04:00:39;45366.13;;;-140.64;100.00
7930;BME280;4010;42.698;23.124;2023-09-08T04:03:06;44850.38;;;-140.64;100.00
7930;BME280;4010;42.698;23.124;2023-09-08T04:05:32;46913.88;;;-140.64;100.00
7930;BME280;4010;42.698;23.124;2023-09-08T04:07:59;43819.09;;;-140.64;100.00
7930;BME280;4010;42.698;23.124;2023-09-08T04:10:26;43303.59;;;-140.64;100.00
7930;BME280;4010;42.698;23.124;2023-09-08T04:12:53;42272.78;;;-140.64;100.00
7930;BME280;4010;42.698;23.124;2023-09-08T04:15:20;44334.69;;;-140.64;100.00
7930;BME280;4010;42.698;23.124;2023-09-08T04:17:48;44334.69;;;-140.64;100.00
7930;BME280;4010;42.698;23.124;2023-09-08T04:20:15;43303.59;;;-140.64;100.00
7930;BME280;4010;42.698;23.124;2023-09-08T04:22:41;42788.13;;;-140.64;100.00
7930;BME280;4010;42.698;23.124;2023-09-08T04:25:09;45624.03;;;-140.64;100.00
7930;BME280;4010;42.698;23.124;2023-09-08T04:27:36;48462.31;;;-140.64;100.00
7930;BME280;4010;42.698;23.124;2023-09-08T04:30:03;50011.50;;;-140.64;100.00
7930;BME280;4010;42.698;23.124;2023-09-08T04:32:30;50786.34;;;-140.64;100.00
7930;BME280;4010;42.698;23.124;2023-09-08T04:34:58;48720.47;;;-140.64;100.00
7930;BME280;4010;42.698;23.124;2023-09-08T04:37:25;42272.78;;;-140.64;100.00
7930;BME280;4010;42.698;23.124;2023-09-08T04:39:51;44334.69;;;-140.64;100.00
7930;BME280;4010;42.698;23.124;2023-09-08T04:42:18;112905.84;;;-140.64;100.00
7930;BME280;4010;42.698;23.124;2023-09-08T04:44:45;118349.16;;;-140.64;100.00
7930;BME280;4010;42.698;23.124;2023-09-08T04:47:11;118349.16;;;-140.64;100.00
7930;BME280;4010;42.698;23.124;2023-09-08T04:49:38;118349.16;;;-140.64;100.00
7930;BME280;4010;42.698;23.124;2023-09-08T04:52:06;118349.16;;;-140.64;100.00
7930;BME280;4010;42.698;23.124;2023-09-08T04:54:33;118349.16;;;-140.64;100.00
7930;BME280;4010;42.698;23.124;2023-09-08T04:57:00;118349.16;;;-140.64;100.00
7930;BME280;4010;42.698;23.124;2023-09-08T04:59:28;118349.16;;;-140.64;98.84
7930;BME280;4010;42.698;23.124;2023-09-08T05:01:54;118349.16;;;-140.64;92.46
7930;BME280;4010;42.698;23.124;2023-09-08T05:04:21;118349.16;;;-140.64;85.53
7930;BME280;4010;42.698;23.124;2023-09-08T05:06:47;118349.16;;;-140.64;81.15
7930;BME280;4010;42.698;23.124;2023-09-08T05:09:15;118349.16;;;-140.64;76.11
7930;BME280;4010;42.698;23.124;2023-09-08T05:11:42;118349.16;;;-140.64;71.20
7930;BME280;4010;42.698;23.124;2023-09-08T05:14:09;118349.16;;;-140.64;73.93
7930;BME280;4010;42.698;23.124;2023-09-08T05:16:35;118349.16;;;-140.64;75.06
7930;BME280;4010;42.698;23.124;2023-09-08T05:19:05;118349.16;;;-140.64;76.87
7930;BME280;4010;42.698;23.124;2023-09-08T05:21:33;118349.16;;;-140.64;72.93
7930;BME280;4010;42.698;23.124;2023-09-08T05:24:00;118349.16;;;-140.64;70.98
7930;BME280;4010;42.698;23.124;2023-09-08T05:26:28;118349.16;;;-140.64;72.10
7930;BME280;4010;42.698;23.124;2023-09-08T05:28:55;118349.16;;;-140.64;72.17
7930;BME280;4010;42.698;23.124;2023-09-08T05:31:21;118349.16;;;-140.64;78.29
7930;BME280;4010;42.698;23.124;2023-09-08T05:33:48;118349.16;;;-140.64;78.35
7930;BME280;4010;42.698;23.124;2023-09-08T05:36:15;118349.16;;;-140.64;75.07
7930;BME280;4010;42.698;23.124;2023-09-08T05:38:41;118349.16;;;-140.64;74.64
7930;BME280;4010;42.698;23.124;2023-09-08T05:41:08;118349.16;;;-140.64;77.12
7930;BME280;4010;42.698;23.124;2023-09-08T05:43:36;118349.16;;;-140.64;81.19
7930;BME280;4010;42.698;23.124;2023-09-08T05:46:02;118349.16;;;-140.64;87.41
7930;BME280;4010;42.698;23.124;2023-09-08T05:48:31;118349.16;;;-140.64;89.95
7930;BME280;4010;42.698;23.124;2023-09-08T05:50:58;118349.16;;;-140.64;89.30
7930;BME280;4010;42.698;23.124;2023-09-08T05:53:25;118349.16;;;-140.64;90.84
7930;BME280;4010;42.698;23.124;2023-09-08T05:55:51;118349.16;;;-140.64;91.66
7930;BME280;4010;42.698;23.124;2023-09-08T05:58:18;118349.16;;;-140.64;91.04
7930;BME280;4010;42.698;23.124;2023-09-08T06:00:46;118349.16;;;-140.64;87.50
7930;BME280;4010;42.698;23.124;2023-09-08T06:03:13;118349.16;;;-140.64;88.81
7930;BME280;4010;42.698;23.124;2023-09-08T06:05:39;118349.16;;;-140.64;84.81
7930;BME280;4010;42.698;23.124;2023-09-08T06:08:06;118349.16;;;-140.64;81.30
7930;BME280;4010;42.698;23.124;2023-09-08T06:10:33;118349.16;;;-140.64;81.68
7930;BME280;4010;42.698;23.124;2023-09-08T06:12:59;118349.16;;;-140.64;82.87
7930;BME280;4010;42.698;23.124;2023-09-08T06:15:26;118349.16;;;-140.64;82.20
7930;BME280;4010;42.698;23.124;2023-09-08T06:17:55;118349.16;;;-140.64;82.72
7930;BME280;4010;42.698;23.124;2023-09-08T06:20:21;118349.16;;;-140.64;86.84
7930;BME280;4010;42.698;23.124;2023-09-08T06:22:49;118349.16;;;-140.64;86.28
7930;BME280;4010;42.698;23.124;2023-09-08T06:25:16;118349.16;;;-140.64;88.18
7930;BME280;4010;42.698;23.124;2023-09-08T06:27:42;118349.16;;;-140.64;89.30
7930;BME280;4010;42.698;23.124;2023-09-08T06:30:10;118349.16;;;-140.64;89.33
7930;BME280;4010;42.698;23.124;2023-09-08T06:32:38;118349.16;;;-140.64;90.93
7930;BME280;4010;42.698;23.124;2023-09-08T06:35:07;118349.16;;;-140.64;89.26
7930;BME280;4010;42.698;23.124;2023-09-08T06:37:35;118349.16;;;-140.64;87.64
7930;BME280;4010;42.698;23.124;2023-09-08T06:40:03;118349.16;;;-140.64;87.57
7930;BME280;4010;42.698;23.124;2023-09-08T06:42:30;118349.16;;;-140.64;87.93
7930;BME280;4010;42.698;23.124;2023-09-08T06:44:56;118349.16;;;-140.64;85.73
7930;BME280;4010;42.698;23.124;2023-09-08T06:47:23;118349.16;;;-140.64;90.86
7930;BME280;4010;42.698;23.124;2023-09-08T06:49:50;118349.16;;;-140.64;87.96
7930;BME280;4010;42.698;23.124;2023-09-08T06:52:18;118349.16;;;-140.64;87.27
7930;BME280;4010;42.698;23.124;2023-09-08T06:54:44;118349.16;;;-140.64;85.07
7930;BME280;4010;42.698;23.124;2023-09-08T06:57:12;118349.16;;;-140.64;86.21
7930;BME280;4010;42.698;23.124;2023-09-08T06:59:38;118349.16;;;-140.64;84.40
7930;BME280;4010;42.698;23.124;2023-09-08T07:02:06;118349.16;;;-140.64;81.95
7930;BME280;4010;42.698;23.124;2023-09-08T07:04:33;118349.16;;;-140.64;84.30
7930;BME280;4010;42.698;23.124;2023-09-08T07:07:00;118349.16;;;-140.64;81.79
7930;BME280;4010;42.698;23.124;2023-09-08T07:09:33;118349.16;;;-140.64;83.78
7930;BME280;4010;42.698;23.124;2023-09-08T07:12:00;118349.16;;;-140.64;82.70
7930;BME280;4010;42.698;23.124;2023-09-08T07:14:27;118349.16;;;-140.64;81.32
7930;BME280;4010;42.698;23.124;2023-09-08T07:16:54;118349.16;;;-140.64;81.08
7930;BME280;4010;42.698;23.124;2023-09-08T07:19:20;118349.16;;;-140.64;80.23
7930;BME280;4010;42.698;23.124;2023-09-08T07:21:47;118349.16;;;-140.64;76.74
7930;BME280;4010;42.698;23.124;2023-09-08T07:24:14;118349.16;;;-140.64;79.32
7930;BME280;4010;42.698;23.124;2023-09-08T07:26:42;118349.16;;;-140.64;76.88
7930;BME280;4010;42.698;23.124;2023-09-08T07:29:08;118349.16;;;-140.64;75.68
7930;BME280;4010;42.698;23.124;2023-09-08T07:31:35;118349.16;;;-140.64;74.78
7930;BME280;4010;42.698;23.124;2023-09-08T07:34:02;118349.16;;;-140.64;74.55
7930;BME280;4010;42.698;23.124;2023-09-08T07:36:29;118349.16;;;-140.64;76.60
7930;BME280;4010;42.698;23.124;2023-09-08T07:38:55;118349.16;;;-140.64;74.35
7930;BME280;4010;42.698;23.124;2023-09-08T07:41:22;118349.16;;;-140.64;73.35
7930;BME280;4010;42.698;23.124;2023-09-08T07:43:50;118349.16;;;-140.64;73.51
7930;BME280;4010;42.698;23.124;2023-09-08T07:46:17;118349.16;;;-140.64;72.30
7930;BME280;4010;42.698;23.124;2023-09-08T07:48:43;118349.16;;;-140.64;68.72
7930;BME280;4010;42.698;23.124;2023-09-08T07:51:10;118349.16;;;-140.64;70.61
7930;BME280;4010;42.698;23.124;2023-09-08T07:53:37;118349.16;;;-140.64;68.82
7930;BME280;4010;42.698;23.124;2023-09-08T07:56:04;118349.16;;;-140.64;64.41
7930;BME280;4010;42.698;23.124;2023-09-08T07:58:31;118349.16;;;-140.64;60.38
7930;BME280;4010;42.698;23.124;2023-09-08T08:00:59;118349.16;;;-140.64;61.73
7930;BME280;4010;42.698;23.124;2023-09-08T08:03:26;118349.16;;;-140.64;61.20
7930;BME280;4010;42.698;23.124;2023-09-08T08:05:52;118349.16;;;-140.64;61.61
7930;BME280;4010;42.698;23.124;2023-09-08T08:08:19;118349.16;;;-140.64;59.41
7930;BME280;4010;42.698;23.124;2023-09-08T08:10:45;118349.16;;;-140.64;59.67
7930;BME280;4010;42.698;23.124;2023-09-08T08:13:12;118349.16;;;-140.64;57.22
7930;BME280;4010;42.698;23.124;2023-09-08T08:15:40;118349.16;;;-140.64;57.27
7930;BME280;4010;42.698;23.124;2023-09-08T08:18:08;118349.16;;;-140.64;59.16
7930;BME280;4010;42.698;23.124;2023-09-08T08:20:36;118349.16;;;-140.64;58.38
7930;BME280;4010;42.698;23.124;2023-09-08T08:23:03;118349.16;;;-140.64;58.02
7930;BME280;4010;42.698;23.124;2023-09-08T08:25:30;118349.16;;;-140.64;57.06
7930;BME280;4010;42.698;23.124;2023-09-08T08:27:57;118349.16;;;-140.64;58.98
7930;BME280;4010;42.698;23.124;2023-09-08T08:30:26;118349.16;;;-140.64;56.23
7930;BME280;4010;42.698;23.124;2023-09-08T08:32:52;118349.16;;;-140.64;58.40
7930;BME280;4010;42.698;23.124;2023-09-08T08:35:21;118349.16;;;-140.64;60.14
7930;BME280;4010;42.698;23.124;2023-09-08T08:37:47;118349.16;;;-140.64;56.86
7930;BME280;4010;42.698;23.124;2023-09-08T08:40:14;118349.16;;;-140.64;57.55
7930;BME280;4010;42.698;23.124;2023-09-08T08:42:41;118349.16;;;-140.64;54.63
7930;BME280;4010;42.698;23.124;2023-09-08T08:45:09;118349.16;;;-140.64;53.06
7930;BME280;4010;42.698;23.124;2023-09-08T08:47:37;118349.16;;;-140.64;50.68
7930;BME280;4010;42.698;23.124;2023-09-08T08:50:04;118349.16;;;-140.64;48.22
7930;BME280;4010;42.698;23.124;2023-09-08T08:52:33;118349.16;;;-140.64;49.13
7930;BME280;4010;42.698;23.124;2023-09-08T08:55:00;118349.16;;;-140.64;48.29
7930;BME280;4010;42.698;23.124;2023-09-08T08:57:27;118349.16;;;-140.64;50.58
7930;BME280;4010;42.698;23.124;2023-09-08T08:59:54;118349.16;;;-140.64;49.35
7930;BME280;4010;42.698;23.124;2023-09-08T09:02:21;118349.16;;;-140.64;48.54
7930;BME280;4010;42.698;23.124;2023-09-08T09:04:49;118349.16;;;-140.64;48.32
7930;BME280;4010;42.698;23.124;2023-09-08T09:07:18;118349.16;;;-140.64;48.92
7930;BME280;4010;42.698;23.124;2023-09-08T09:09:46;118349.16;;;-140.64;54.80
7930;BME280;4010;42.698;23.124;2023-09-08T09:12:13;118349.16;;;-140.64;49.20
7930;BME280;4010;42.698;23.124;2023-09-08T09:14:45;118349.16;;;-140.64;54.60
7930;BME280;4010;42.698;23.124;2023-09-08T09:17:13;118349.16;;;-140.64;50.50
7930;BME280;4010;42.698;23.124;2023-09-08T09:19:40;118349.16;;;-140.64;50.88
7930;BME280;4010;42.698;23.124;2023-09-08T09:22:07;118349.16;;;-140.64;53.57
7930;BME280;4010;42.698;23.124;2023-09-08T09:24:35;118349.16;;;-140.64;51.54
7930;BME280;4010;42.698;23.124;2023-09-08T09:27:08;118349.16;;;-140.64;53.59
7930;BME280;4010;42.698;23.124;2023-09-08T09:29:44;118349.16;;;-140.64;51.56
7930;BME280;4010;42.698;23.124;2023-09-08T09:32:12;118349.16;;;-140.64;51.42
7930;BME280;4010;42.698;23.124;2023-09-08T09:34:47;118349.16;;;-140.64;54.47
7930;BME280;4010;42.698;23.124;2023-09-08T09:37:14;118349.16;;;-140.64;52.66
7930;BME280;4010;42.698;23.124;2023-09-08T09:39:41;118349.16;;;-140.64;50.21
7930;BME280;4010;42.698;23.124;2023-09-08T09:42:09;118349.16;;;-140.64;48.40
7930;BME280;4010;42.698;23.124;2023-09-08T09:44:36;118349.16;;;-140.64;49.25
7930;BME280;4010;42.698;23.124;2023-09-08T09:47:03;118349.16;;;-140.64;52.16
7930;BME280;4010;42.698;23.124;2023-09-08T09:49:30;118349.16;;;-140.64;49.71
7930;BME280;4010;42.698;23.124;2023-09-08T09:51:58;118349.16;;;-140.64;51.95
7930;BME280;4010;42.698;23.124;2023-09-08T09:54:24;118349.16;;;-140.64;51.89
7930;BME280;4010;42.698;23.124;2023-09-08T09:56:52;118349.16;;;-140.64;54.94
7930;BME280;4010;42.698;23.124;2023-09-08T09:59:21;118349.16;;;-140.64;51.47
7930;BME280;4010;42.698;23.124;2023-09-08T10:01:49;118349.16;;;-140.64;51.26
7930;BME280;4010;42.698;23.124;2023-09-08T10:04:17;118349.16;;;-140.64;49.04
7930;BME280;4010;42.698;23.124;2023-09-08T10:06:45;118349.16;;;-140.64;49.27
7930;BME280;4010;42.698;23.124;2023-09-08T10:09:12;118349.16;;;-140.64;49.89
7930;BME280;4010;42.698;23.124;2023-09-08T10:11:42;118349.16;;;-140.64;49.90
7930;BME280;4010;42.698;23.124;2023-09-08T10:14:11;118349.16;;;-140.64;50.20
7930;BME280;4010;42.698;23.124;2023-09-08T10:16:40;118349.16;;;-140.64;50.00
7930;BME280;4010;42.698;23.124;2023-09-08T10:19:10;118349.16;;;-140.64;51.39
7930;BME280;4010;42.698;23.124;2023-09-08T10:21:40;118349.16;;;-140.64;53.04
7930;BME280;4010;42.698;23.124;2023-09-08T10:24:14;118349.16;;;-140.64;52.75
7930;BME280;4010;42.698;23.124;2023-09-08T10:26:44;118349.16;;;-140.64;51.58
7930;BME280;4010;42.698;23.124;2023-09-08T10:29:12;118349.16;;;-140.64;51.82
7930;BME280;4010;42.698;23.124;2023-09-08T10:31:40;118349.16;;;-140.64;53.51
7930;BME280;4010;42.698;23.124;2023-09-08T10:34:07;118349.16;;;-140.64;54.21
7930;BME280;4010;42.698;23.124;2023-09-08T10:36:34;118349.16;;;-140.64;53.25
7930;BME280;4010;42.698;23.124;2023-09-08T10:39:30;118349.16;;;-140.64;52.75
7930;BME280;4010;42.698;23.124;2023-09-08T10:42:24;118349.16;;;-140.64;52.71
7930;BME280;4010;42.698;23.124;2023-09-08T10:44:58;118349.16;;;-140.64;52.14
7930;BME280;4010;42.698;23.124;2023-09-08T10:47:32;118349.16;;;-140.64;53.70
7930;BME280;4010;42.698;23.124;2023-09-08T10:49:59;118349.16;;;-140.64;53.70
7930;BME280;4010;42.698;23.124;2023-09-08T10:52:26;118349.16;;;-140.64;52.96
7930;BME280;4010;42.698;23.124;2023-09-08T10:54:55;118349.16;;;-140.64;54.89
7930;BME280;4010;42.698;23.124;2023-09-08T10:57:23;118349.16;;;-140.64;54.99
7930;BME280;4010;42.698;23.124;2023-09-08T10:59:51;118349.16;;;-140.64;53.32
7930;BME280;4010;42.698;23.124;2023-09-08T11:02:33;118349.16;;;-140.64;53.85
7930;BME280;4010;42.698;23.124;2023-09-08T11:05:01;118349.16;;;-140.64;53.32
7930;BME280;4010;42.698;23.124;2023-09-08T11:07:30;118349.16;;;-140.64;51.56
7930;BME280;4010;42.698;23.124;2023-09-08T11:09:56;118349.16;;;-140.64;54.97
7930;BME280;4010;42.698;23.124;2023-09-08T11:12:26;118349.16;;;-140.64;54.22
7930;BME280;4010;42.698;23.124;2023-09-08T11:14:53;118349.16;;;-140.64;54.75
7930;BME280;4010;42.698;23.124;2023-09-08T11:17:20;118349.16;;;-140.64;55.19
7930;BME280;4010;42.698;23.124;2023-09-08T11:19:49;118349.16;;;-140.64;52.39
7930;BME280;4010;42.698;23.124;2023-09-08T11:22:17;118349.16;;;-140.64;53.18
7930;BME280;4010;42.698;23.124;2023-09-08T11:24:44;118349.16;;;-140.64;50.47
7930;BME280;4010;42.698;23.124;2023-09-08T11:27:11;118349.16;;;-140.64;51.30
7930;BME280;4010;42.698;23.124;2023-09-08T11:29:38;118349.16;;;-140.64;51.22
7930;BME280;4010;42.698;23.124;2023-09-08T11:32:06;118349.16;;;-140.64;50.12
7930;BME280;4010;42.698;23.124;2023-09-08T11:34:34;118349.16;;;-140.64;52.16
7930;BME280;4010;42.698;23.124;2023-09-08T11:37:05;118349.16;;;-140.64;50.61
7930;BME280;4010;42.698;23.124;2023-09-08T11:39:37;118349.16;;;-140.64;50.05
7930;BME280;4010;42.698;23.124;2023-09-08T11:42:04;118349.16;;;-140.64;51.09
7930;BME280;4010;42.698;23.124;2023-09-08T11:44:31;118349.16;;;-140.64;50.88
7930;BME280;4010;42.698;23.124;2023-09-08T11:46:58;118349.16;;;-140.64;51.60
7930;BME280;4010;42.698;23.124;2023-09-08T11:49:25;118349.16;;;-140.64;53.78
7930;BME280;4010;42.698;23.124;2023-09-08T11:51:51;118349.16;;;-140.64;49.09
7930;BME280;4010;42.698;23.124;2023-09-08T11:54:19;118349.16;;;-140.64;50.40
7930;BME280;4010;42.698;23.124;2023-09-08T11:56:46;118349.16;;;-140.64;49.01
7930;BME280;4010;42.698;23.124;2023-09-08T11:59:13;118349.16;;;-140.64;49.08
7930;BME280;4010;42.698;23.124;2023-09-08T12:01:40;118349.16;;;-140.64;48.99
7930;BME280;4010;42.698;23.124;2023-09-08T12:04:16;118349.16;;;-140.64;49.44
7930;BME280;4010;42.698;23.124;2023-09-08T12:06:43;118349.16;;;-140.64;50.11
7930;BME280;4010;42.698;23.124;2023-09-08T12:09:10;118349.16;;;-140.64;49.46
7930;BME280;4010;42.698;23.124;2023-09-08T12:11:38;118349.16;;;-140.64;49.17
7930;BME280;4010;42.698;23.124;2023-09-08T12:14:09;118349.16;;;-140.64;50.26
7930;BME280;4010;42.698;23.124;2023-09-08T12:16:36;118349.16;;;-140.64;48.49
7930;BME280;4010;42.698;23.124;2023-09-08T12:19:03;118349.16;;;-140.64;49.30
7930;BME280;4010;42.698;23.124;2023-09-08T12:21:31;118349.16;;;-140.64;48.68
7930;BME280;4010;42.698;23.124;2023-09-08T12:23:58;118349.16;;;-140.64;49.64
7930;BME280;4010;42.698;23.124;2023-09-08T12:26:25;118349.16;;;-140.64;49.24
7930;BME280;4010;42.698;23.124;2023-09-08T12:28:53;118349.16;;;-140.64;48.86
7930;BME280;4010;42.698;23.124;2023-09-08T12:31:20;118349.16;;;-140.64;47.66
7930;BME280;4010;42.698;23.124;2023-09-08T12:33:47;118349.16;;;-140.64;47.13
7930;BME280;4010;42.698;23.124;2023-09-08T12:36:15;118349.16;;;-140.64;46.62
7930;BME280;4010;42.698;23.124;2023-09-08T12:38:47;118349.16;;;-140.64;45.37
7930;BME280;4010;42.698;23.124;2023-09-08T12:41:13;118349.16;;;-140.64;44.34